Terminal Aerodrome Forecast
Issued by NWS

Home | Current Version | Previous Version | Graphics & Text | Print | Product List | Glossary On
Versions: 1 2 3 4 5 6 7 8 9 10 11 12 13 14 15 16 17
000
FTUS45 KGGW 262320
TAFSDY
TAF
KSDY 262320Z 2700/2724 31016KT P6SM SCT090
     FM270300 28005KT P6SM FEW100
     FM271500 29009KT P6SM FEW160
     FM271800 31013G23KT P6SM SCT110
     FM272300 31012G20KT P6SM VCSH BKN080=

USA.gov is the U.S. government's official web portal to all federal, state and local government web resources and services.